sensor_id;sensor_type;location;lat;lon;timestamp;temperature;humidity
17423;DHT22;8829;47.932;7.810;2022-08-19T00:00:29;17.30;99.90
17423;DHT22;8829;47.932;7.810;2022-08-19T00:02:56;17.20;99.90
17423;DHT22;8829;47.932;7.810;2022-08-19T00:05:22;17.30;99.90
17423;DHT22;8829;47.932;7.810;2022-08-19T00:07:51;17.30;99.90
17423;DHT22;8829;47.932;7.810;2022-08-19T00:10:19;17.30;99.90
17423;DHT22;8829;47.932;7.810;2022-08-19T00:12:46;17.30;99.90
17423;DHT22;8829;47.932;7.810;2022-08-19T00:15:16;17.30;99.90
17423;DHT22;8829;47.932;7.810;2022-08-19T00:17:44;17.20;99.90
17423;DHT22;8829;47.932;7.810;2022-08-19T00:20:14;17.10;99.90
17423;DHT22;8829;47.932;7.810;2022-08-19T00:22:43;17.10;99.90
17423;DHT22;8829;47.932;7.810;2022-08-19T00:25:12;17.20;99.90
17423;DHT22;8829;47.932;7.810;2022-08-19T00:27:39;17.20;99.90
17423;DHT22;8829;47.932;7.810;2022-08-19T00:30:08;17.20;99.90
17423;DHT22;8829;47.932;7.810;2022-08-19T00:32:36;17.20;99.90
17423;DHT22;8829;47.932;7.810;2022-08-19T00:35:03;17.20;99.90
17423;DHT22;8829;47.932;7.810;2022-08-19T00:37:30;17.20;99.90
17423;DHT22;8829;47.932;7.810;2022-08-19T00:39:58;17.20;99.90
17423;DHT22;8829;47.932;7.810;2022-08-19T00:42:26;17.30;99.90
17423;DHT22;8829;47.932;7.810;2022-08-19T00:44:54;17.30;99.90
17423;DHT22;8829;47.932;7.810;2022-08-19T00:47:21;17.40;99.90
17423;DHT22;8829;47.932;7.810;2022-08-19T00:49:50;17.50;99.90
17423;DHT22;8829;47.932;7.810;2022-08-19T00:52:21;17.50;99.90
17423;DHT22;8829;47.932;7.810;2022-08-19T00:54:49;17.40;99.90
17423;DHT22;8829;47.932;7.810;2022-08-19T00:57:21;17.60;99.90
17423;DHT22;8829;47.932;7.810;2022-08-19T00:59:52;17.60;99.90
17423;DHT22;8829;47.932;7.810;2022-08-19T01:02:20;17.50;99.90
17423;DHT22;8829;47.932;7.810;2022-08-19T01:04:47;17.50;99.90
17423;DHT22;8829;47.932;7.810;2022-08-19T01:07:14;17.40;99.90
17423;DHT22;8829;47.932;7.810;2022-08-19T01:09:41;17.40;99.90
17423;DHT22;8829;47.932;7.810;2022-08-19T01:12:08;17.40;99.90
17423;DHT22;8829;47.932;7.810;2022-08-19T01:14:36;17.40;99.90
17423;DHT22;8829;47.932;7.810;2022-08-19T01:17:06;17.30;99.90
17423;DHT22;8829;47.932;7.810;2022-08-19T01:19:36;17.50;99.90
17423;DHT22;8829;47.932;7.810;2022-08-19T01:22:08;17.70;99.90
17423;DHT22;8829;47.932;7.810;2022-08-19T01:24:37;17.80;99.90
17423;DHT22;8829;47.932;7.810;2022-08-19T01:27:04;17.90;99.90
17423;DHT22;8829;47.932;7.810;2022-08-19T01:29:31;17.90;99.90
17423;DHT22;8829;47.932;7.810;2022-08-19T01:31:58;18.00;99.90
17423;DHT22;8829;47.932;7.810;2022-08-19T01:34:27;18.00;99.90
17423;DHT22;8829;47.932;7.810;2022-08-19T01:36:54;18.00;99.90
17423;DHT22;8829;47.932;7.810;2022-08-19T01:39:23;18.00;99.90
17423;DHT22;8829;47.932;7.810;2022-08-19T01:41:51;18.00;99.90
17423;DHT22;8829;47.932;7.810;2022-08-19T01:44:20;18.10;99.90
17423;DHT22;8829;47.932;7.810;2022-08-19T01:46:50;18.10;99.90
17423;DHT22;8829;47.932;7.810;2022-08-19T01:49:19;18.00;99.90
17423;DHT22;8829;47.932;7.810;2022-08-19T01:51:46;18.00;99.90
17423;DHT22;8829;47.932;7.810;2022-08-19T01:54:15;17.90;99.90
17423;DHT22;8829;47.932;7.810;2022-08-19T01:56:42;17.90;99.90
17423;DHT22;8829;47.932;7.810;2022-08-19T01:59:18;17.80;99.90
17423;DHT22;8829;47.932;7.810;2022-08-19T02:01:46;17.90;99.90
17423;DHT22;8829;47.932;7.810;2022-08-19T02:04:13;18.00;99.90
17423;DHT22;8829;47.932;7.810;2022-08-19T02:06:41;18.00;99.90
17423;DHT22;8829;47.932;7.810;2022-08-19T02:09:09;18.00;99.90
17423;DHT22;8829;47.932;7.810;2022-08-19T02:11:37;18.00;99.90
17423;DHT22;8829;47.932;7.810;2022-08-19T02:14:06;18.00;99.90
17423;DHT22;8829;47.932;7.810;2022-08-19T02:16:36;18.00;99.90
17423;DHT22;8829;47.932;7.810;2022-08-19T02:19:04;17.90;99.90
17423;DHT22;8829;47.932;7.810;2022-08-19T02:21:31;17.90;99.90
17423;DHT22;8829;47.932;7.810;2022-08-19T02:23:58;18.00;99.90
17423;DHT22;8829;47.932;7.810;2022-08-19T02:26:26;18.00;99.90
17423;DHT22;8829;47.932;7.810;2022-08-19T02:28:53;18.10;99.90
17423;DHT22;8829;47.932;7.810;2022-08-19T02:31:23;18.20;99.90
17423;DHT22;8829;47.932;7.810;2022-08-19T02:33:52;18.10;99.90
17423;DHT22;8829;47.932;7.810;2022-08-19T02:36:19;18.10;99.90
17423;DHT22;8829;47.932;7.810;2022-08-19T02:38:46;17.90;99.90
17423;DHT22;8829;47.932;7.810;2022-08-19T02:41:15;17.80;99.90
17423;DHT22;8829;47.932;7.810;2022-08-19T02:43:43;17.70;99.90
17423;DHT22;8829;47.932;7.810;2022-08-19T02:46:15;17.70;99.90
17423;DHT22;8829;47.932;7.810;2022-08-19T02:48:43;17.70;99.90
17423;DHT22;8829;47.932;7.810;2022-08-19T02:51:17;17.70;99.90
17423;DHT22;8829;47.932;7.810;2022-08-19T02:53:44;17.70;99.90
17423;DHT22;8829;47.932;7.810;2022-08-19T02:56:11;17.60;99.90
17423;DHT22;8829;47.932;7.810;2022-08-19T02:58:38;17.70;99.90
17423;DHT22;8829;47.932;7.810;2022-08-19T03:01:05;17.70;99.90
17423;DHT22;8829;47.932;7.810;2022-08-19T03:03:32;17.70;99.90
17423;DHT22;8829;47.932;7.810;2022-08-19T03:06:04;17.60;99.90
17423;DHT22;8829;47.932;7.810;2022-08-19T03:08:32;17.60;99.90
17423;DHT22;8829;47.932;7.810;2022-08-19T03:10:59;17.50;99.90
17423;DHT22;8829;47.932;7.810;2022-08-19T03:13:26;17.50;99.90
17423;DHT22;8829;47.932;7.810;2022-08-19T03:15:53;17.50;99.90
17423;DHT22;8829;47.932;7.810;2022-08-19T03:18:20;17.50;99.90
17423;DHT22;8829;47.932;7.810;2022-08-19T03:20:48;17.60;99.90
17423;DHT22;8829;47.932;7.810;2022-08-19T03:23:16;17.60;99.90
17423;DHT22;8829;47.932;7.810;2022-08-19T03:25:46;17.50;99.90
17423;DHT22;8829;47.932;7.810;2022-08-19T03:28:15;17.40;99.90
17423;DHT22;8829;47.932;7.810;2022-08-19T03:30:54;17.30;99.90
17423;DHT22;8829;47.932;7.810;2022-08-19T03:33:22;17.30;99.90
17423;DHT22;8829;47.932;7.810;2022-08-19T03:36:03;17.30;99.90
17423;DHT22;8829;47.932;7.810;2022-08-19T03:38:30;17.30;99.90
17423;DHT22;8829;47.932;7.810;2022-08-19T03:41:02;17.40;99.90
17423;DHT22;8829;47.932;7.810;2022-08-19T03:43:29;17.40;99.90
17423;DHT22;8829;47.932;7.810;2022-08-19T03:46:00;17.40;99.90
17423;DHT22;8829;47.932;7.810;2022-08-19T03:48:28;17.40;99.90
17423;DHT22;8829;47.932;7.810;2022-08-19T03:50:56;17.50;99.90
17423;DHT22;8829;47.932;7.810;2022-08-19T03:53:23;17.40;99.90
17423;DHT22;8829;47.932;7.810;2022-08-19T03:55:51;17.40;99.90
17423;DHT22;8829;47.932;7.810;2022-08-19T03:58:20;17.50;99.90
17423;DHT22;8829;47.932;7.810;2022-08-19T04:00:46;17.40;99.90
17423;DHT22;8829;47.932;7.810;2022-08-19T04:03:13;17.50;99.90
17423;DHT22;8829;47.932;7.810;2022-08-19T04:05:40;17.50;99.90
17423;DHT22;8829;47.932;7.810;2022-08-19T04:08:07;17.50;99.90
17423;DHT22;8829;47.932;7.810;2022-08-19T04:10:36;17.50;99.90
17423;DHT22;8829;47.932;7.810;2022-08-19T04:13:03;17.50;99.90
17423;DHT22;8829;47.932;7.810;2022-08-19T04:15:32;17.40;99.90
17423;DHT22;8829;47.932;7.810;2022-08-19T04:18:05;17.50;99.90
17423;DHT22;8829;47.932;7.810;2022-08-19T04:20:33;17.50;99.90
17423;DHT22;8829;47.932;7.810;2022-08-19T04:23:04;17.50;99.90
17423;DHT22;8829;47.932;7.810;2022-08-19T04:25:35;17.40;99.90
17423;DHT22;8829;47.932;7.810;2022-08-19T04:28:02;17.40;99.90
17423;DHT22;8829;47.932;7.810;2022-08-19T04:30:29;17.40;99.90
17423;DHT22;8829;47.932;7.810;2022-08-19T04:32:58;17.50;99.90
17423;DHT22;8829;47.932;7.810;2022-08-19T04:35:25;17.50;99.90
17423;DHT22;8829;47.932;7.810;2022-08-19T04:37:51;17.40;99.90
17423;DHT22;8829;47.932;7.810;2022-08-19T04:40:18;17.50;99.90
17423;DHT22;8829;47.932;7.810;2022-08-19T04:43:02;17.60;99.90
17423;DHT22;8829;47.932;7.810;2022-08-19T04:45:29;17.60;99.90
17423;DHT22;8829;47.932;7.810;2022-08-19T04:47:57;17.70;99.90
17423;DHT22;8829;47.932;7.810;2022-08-19T04:50:25;17.70;99.90
17423;DHT22;8829;47.932;7.810;2022-08-19T04:52:52;17.60;99.90
17423;DHT22;8829;47.932;7.810;2022-08-19T04:55:18;17.60;99.90
17423;DHT22;8829;47.932;7.810;2022-08-19T04:57:45;17.60;99.90
17423;DHT22;8829;47.932;7.810;2022-08-19T05:00:13;17.60;99.90
17423;DHT22;8829;47.932;7.810;2022-08-19T05:02:40;17.60;99.90
17423;DHT22;8829;47.932;7.810;2022-08-19T05:05:08;17.60;99.90
17423;DHT22;8829;47.932;7.810;2022-08-19T05:07:36;17.70;99.90
17423;DHT22;8829;47.932;7.810;2022-08-19T05:10:03;17.60;99.90
17423;DHT22;8829;47.932;7.810;2022-08-19T05:12:31;17.60;99.90
17423;DHT22;8829;47.932;7.810;2022-08-19T05:14:58;17.70;99.90
17423;DHT22;8829;47.932;7.810;2022-08-19T05:17:27;17.60;99.90
17423;DHT22;8829;47.932;7.810;2022-08-19T05:19:54;17.60;99.90
17423;DHT22;8829;47.932;7.810;2022-08-19T05:22:41;17.60;99.90
17423;DHT22;8829;47.932;7.810;2022-08-19T05:25:10;17.60;99.90
17423;DHT22;8829;47.932;7.810;2022-08-19T05:27:38;17.70;99.90
17423;DHT22;8829;47.932;7.810;2022-08-19T05:30:06;17.70;99.90
17423;DHT22;8829;47.932;7.810;2022-08-19T05:32:34;17.60;99.90
17423;DHT22;8829;47.932;7.810;2022-08-19T05:35:01;17.60;99.90
17423;DHT22;8829;47.932;7.810;2022-08-19T05:37:28;17.70;99.90
17423;DHT22;8829;47.932;7.810;2022-08-19T05:39:56;17.60;99.90
17423;DHT22;8829;47.932;7.810;2022-08-19T05:42:23;17.70;99.90
17423;DHT22;8829;47.932;7.810;2022-08-19T05:44:52;17.70;99.90
17423;DHT22;8829;47.932;7.810;2022-08-19T05:47:21;17.80;99.90
17423;DHT22;8829;47.932;7.810;2022-08-19T05:49:48;17.80;99.90
17423;DHT22;8829;47.932;7.810;2022-08-19T05:52:16;17.70;99.90
17423;DHT22;8829;47.932;7.810;2022-08-19T05:54:43;17.80;99.90
17423;DHT22;8829;47.932;7.810;2022-08-19T05:57:15;17.80;99.90
17423;DHT22;8829;47.932;7.810;2022-08-19T05:59:42;17.80;99.90
17423;DHT22;8829;47.932;7.810;2022-08-19T06:02:11;17.80;99.90
17423;DHT22;8829;47.932;7.810;2022-08-19T06:04:39;17.90;99.90
17423;DHT22;8829;47.932;7.810;2022-08-19T06:07:08;17.90;99.90
17423;DHT22;8829;47.932;7.810;2022-08-19T06:09:35;17.90;99.90
17423;DHT22;8829;47.932;7.810;2022-08-19T06:12:03;17.90;99.90
17423;DHT22;8829;47.932;7.810;2022-08-19T06:14:33;18.00;99.90
17423;DHT22;8829;47.932;7.810;2022-08-19T06:17:01;18.00;99.90
17423;DHT22;8829;47.932;7.810;2022-08-19T06:19:29;18.00;99.90
17423;DHT22;8829;47.932;7.810;2022-08-19T06:21:58;18.10;99.90
17423;DHT22;8829;47.932;7.810;2022-08-19T06:24:27;18.30;99.90
17423;DHT22;8829;47.932;7.810;2022-08-19T06:26:56;18.50;99.90
17423;DHT22;8829;47.932;7.810;2022-08-19T06:29:25;18.60;99.90
17423;DHT22;8829;47.932;7.810;2022-08-19T06:31:55;18.70;99.90
17423;DHT22;8829;47.932;7.810;2022-08-19T06:34:23;18.80;99.90
17423;DHT22;8829;47.932;7.810;2022-08-19T06:36:51;18.90;99.90
17423;DHT22;8829;47.932;7.810;2022-08-19T06:39:20;19.00;99.90
17423;DHT22;8829;47.932;7.810;2022-08-19T06:41:49;19.00;99.90
17423;DHT22;8829;47.932;7.810;2022-08-19T06:44:17;19.10;99.90
17423;DHT22;8829;47.932;7.810;2022-08-19T06:46:44;19.10;99.90
17423;DHT22;8829;47.932;7.810;2022-08-19T06:49:12;19.10;99.90
17423;DHT22;8829;47.932;7.810;2022-08-19T06:51:41;19.10;99.90
17423;DHT22;8829;47.932;7.810;2022-08-19T06:54:09;19.10;99.90
17423;DHT22;8829;47.932;7.810;2022-08-19T06:56:37;19.20;99.90
17423;DHT22;8829;47.932;7.810;2022-08-19T06:59:06;19.30;99.90
17423;DHT22;8829;47.932;7.810;2022-08-19T07:01:35;19.30;99.90
17423;DHT22;8829;47.932;7.810;2022-08-19T07:04:04;19.40;99.90
17423;DHT22;8829;47.932;7.810;2022-08-19T07:06:32;19.50;99.90
17423;DHT22;8829;47.932;7.810;2022-08-19T07:08:59;19.60;99.90
17423;DHT22;8829;47.932;7.810;2022-08-19T07:11:27;19.60;99.90
17423;DHT22;8829;47.932;7.810;2022-08-19T07:13:53;19.70;99.90
17423;DHT22;8829;47.932;7.810;2022-08-19T07:16:20;19.70;99.90
17423;DHT22;8829;47.932;7.810;2022-08-19T07:18:48;19.80;99.90
17423;DHT22;8829;47.932;7.810;2022-08-19T07:21:19;19.90;99.90
17423;DHT22;8829;47.932;7.810;2022-08-19T07:23:48;20.00;99.90
17423;DHT22;8829;47.932;7.810;2022-08-19T07:26:18;20.10;99.90
17423;DHT22;8829;47.932;7.810;2022-08-19T07:28:46;20.10;99.90
17423;DHT22;8829;47.932;7.810;2022-08-19T07:31:15;20.20;99.90
17423;DHT22;8829;47.932;7.810;2022-08-19T07:33:44;20.30;99.90
17423;DHT22;8829;47.932;7.810;2022-08-19T07:36:13;20.30;99.90
17423;DHT22;8829;47.932;7.810;2022-08-19T07:38:43;20.30;99.90
17423;DHT22;8829;47.932;7.810;2022-08-19T07:41:13;20.30;99.90
17423;DHT22;8829;47.932;7.810;2022-08-19T07:47:03;20.60;99.90
17423;DHT22;8829;47.932;7.810;2022-08-19T07:49:31;20.70;99.90
17423;DHT22;8829;47.932;7.810;2022-08-19T07:52:01;20.70;99.90
17423;DHT22;8829;47.932;7.810;2022-08-19T07:54:32;20.70;99.90
17423;DHT22;8829;47.932;7.810;2022-08-19T07:57:02;20.70;99.90
17423;DHT22;8829;47.932;7.810;2022-08-19T07:59:30;20.80;99.90
17423;DHT22;8829;47.932;7.810;2022-08-19T08:01:57;20.70;99.90
17423;DHT22;8829;47.932;7.810;2022-08-19T08:04:26;20.80;99.90
17423;DHT22;8829;47.932;7.810;2022-08-19T08:07:11;20.90;99.90
17423;DHT22;8829;47.932;7.810;2022-08-19T08:09:56;21.00;99.90
17423;DHT22;8829;47.932;7.810;2022-08-19T08:12:27;21.00;99.90
17423;DHT22;8829;47.932;7.810;2022-08-19T08:14:57;21.10;99.90
17423;DHT22;8829;47.932;7.810;2022-08-19T08:17:27;21.10;99.90
17423;DHT22;8829;47.932;7.810;2022-08-19T08:19:55;21.20;99.90
17423;DHT22;8829;47.932;7.810;2022-08-19T08:22:23;20.70;99.90
17423;DHT22;8829;47.932;7.810;2022-08-19T08:25:18;20.30;99.90
17423;DHT22;8829;47.932;7.810;2022-08-19T08:27:48;20.20;99.90
17423;DHT22;8829;47.932;7.810;2022-08-19T08:30:18;20.30;99.90
17423;DHT22;8829;47.932;7.810;2022-08-19T08:32:46;20.40;99.90
17423;DHT22;8829;47.932;7.810;2022-08-19T08:35:17;20.40;99.90
17423;DHT22;8829;47.932;7.810;2022-08-19T08:37:45;20.50;99.90
17423;DHT22;8829;47.932;7.810;2022-08-19T08:40:19;20.50;99.90
17423;DHT22;8829;47.932;7.810;2022-08-19T08:42:54;20.60;99.90
17423;DHT22;8829;47.932;7.810;2022-08-19T08:45:24;20.70;99.90
17423;DHT22;8829;47.932;7.810;2022-08-19T08:47:54;20.80;99.90
17423;DHT22;8829;47.932;7.810;2022-08-19T08:50:28;20.70;99.90
17423;DHT22;8829;47.932;7.810;2022-08-19T08:52:58;20.80;99.90
17423;DHT22;8829;47.932;7.810;2022-08-19T08:55:28;20.90;99.90
17423;DHT22;8829;47.932;7.810;2022-08-19T08:58:00;20.90;99.90
17423;DHT22;8829;47.932;7.810;2022-08-19T09:00:31;21.00;99.90
17423;DHT22;8829;47.932;7.810;2022-08-19T09:03:01;21.00;99.90
17423;DHT22;8829;47.932;7.810;2022-08-19T09:05:38;21.00;99.90
17423;DHT22;8829;47.932;7.810;2022-08-19T09:08:16;21.00;99.90
17423;DHT22;8829;47.932;7.810;2022-08-19T09:10:50;21.00;99.90
17423;DHT22;8829;47.932;7.810;2022-08-19T09:13:26;21.10;99.90
17423;DHT22;8829;47.932;7.810;2022-08-19T09:16:03;21.00;99.90
17423;DHT22;8829;47.932;7.810;2022-08-19T09:18:41;21.00;99.90
17423;DHT22;8829;47.932;7.810;2022-08-19T09:21:09;21.00;99.90
17423;DHT22;8829;47.932;7.810;2022-08-19T09:23:36;21.00;99.90
17423;DHT22;8829;47.932;7.810;2022-08-19T09:26:07;21.10;99.90
17423;DHT22;8829;47.932;7.810;2022-08-19T09:28:35;21.00;99.90
17423;DHT22;8829;47.932;7.810;2022-08-19T09:31:03;21.00;99.90
17423;DHT22;8829;47.932;7.810;2022-08-19T09:33:30;20.80;99.90
17423;DHT22;8829;47.932;7.810;2022-08-19T09:36:03;20.80;99.90
17423;DHT22;8829;47.932;7.810;2022-08-19T09:38:30;20.70;99.90
17423;DHT22;8829;47.932;7.810;2022-08-19T09:41:02;20.60;99.90
17423;DHT22;8829;47.932;7.810;2022-08-19T09:43:30;20.50;99.90
17423;DHT22;8829;47.932;7.810;2022-08-19T09:45:59;20.40;99.90
17423;DHT22;8829;47.932;7.810;2022-08-19T09:48:26;20.60;99.90
17423;DHT22;8829;47.932;7.810;2022-08-19T09:50:53;20.60;99.90
17423;DHT22;8829;47.932;7.810;2022-08-19T09:53:20;20.60;99.90
17423;DHT22;8829;47.932;7.810;2022-08-19T09:55:48;20.60;99.90
17423;DHT22;8829;47.932;7.810;2022-08-19T09:58:15;20.70;99.90
17423;DHT22;8829;47.932;7.810;2022-08-19T10:00:42;20.80;99.90
17423;DHT22;8829;47.932;7.810;2022-08-19T10:03:12;20.80;99.90
17423;DHT22;8829;47.932;7.810;2022-08-19T10:05:39;20.70;99.90
17423;DHT22;8829;47.932;7.810;2022-08-19T10:08:16;20.80;99.90
17423;DHT22;8829;47.932;7.810;2022-08-19T10:10:46;20.70;99.90
17423;DHT22;8829;47.932;7.810;2022-08-19T10:13:15;21.10;99.90
17423;DHT22;8829;47.932;7.810;2022-08-19T10:15:43;21.40;99.90
17423;DHT22;8829;47.932;7.810;2022-08-19T10:18:12;21.60;99.90
17423;DHT22;8829;47.932;7.810;2022-08-19T10:20:39;21.80;99.90
17423;DHT22;8829;47.932;7.810;2022-08-19T10:23:07;22.00;99.90
17423;DHT22;8829;47.932;7.810;2022-08-19T10:25:34;22.20;99.90
17423;DHT22;8829;47.932;7.810;2022-08-19T10:28:01;22.40;99.90
17423;DHT22;8829;47.932;7.810;2022-08-19T10:30:28;22.50;99.90
17423;DHT22;8829;47.932;7.810;2022-08-19T10:32:55;22.60;99.90
17423;DHT22;8829;47.932;7.810;2022-08-19T10:35:24;22.70;99.90
17423;DHT22;8829;47.932;7.810;2022-08-19T10:37:52;22.60;99.90
17423;DHT22;8829;47.932;7.810;2022-08-19T10:40:19;22.50;99.90
17423;DHT22;8829;47.932;7.810;2022-08-19T10:42:46;22.10;99.90
17423;DHT22;8829;47.932;7.810;2022-08-19T10:45:13;21.70;99.90
17423;DHT22;8829;47.932;7.810;2022-08-19T10:47:40;21.70;99.90
17423;DHT22;8829;47.932;7.810;2022-08-19T10:50:07;21.80;99.90
17423;DHT22;8829;47.932;7.810;2022-08-19T10:52:53;21.70;99.90
17423;DHT22;8829;47.932;7.810;2022-08-19T10:55:22;21.80;99.90
17423;DHT22;8829;47.932;7.810;2022-08-19T10:58:11;21.80;99.90
17423;DHT22;8829;47.932;7.810;2022-08-19T11:00:39;21.70;99.90
17423;DHT22;8829;47.932;7.810;2022-08-19T11:03:06;21.80;99.90
17423;DHT22;8829;47.932;7.810;2022-08-19T11:05:33;22.10;99.90
17423;DHT22;8829;47.932;7.810;2022-08-19T11:08:02;22.20;99.90
17423;DHT22;8829;47.932;7.810;2022-08-19T11:10:29;22.20;99.90
17423;DHT22;8829;47.932;7.810;2022-08-19T11:12:56;22.20;99.90
17423;DHT22;8829;47.932;7.810;2022-08-19T11:15:23;22.40;99.90
17423;DHT22;8829;47.932;7.810;2022-08-19T11:17:51;22.50;99.90
17423;DHT22;8829;47.932;7.810;2022-08-19T11:20:19;22.80;99.90
17423;DHT22;8829;47.932;7.810;2022-08-19T11:22:46;22.90;99.90
17423;DHT22;8829;47.932;7.810;2022-08-19T11:25:15;22.80;99.90
17423;DHT22;8829;47.932;7.810;2022-08-19T11:27:42;22.90;99.90
17423;DHT22;8829;47.932;7.810;2022-08-19T11:30:12;22.90;99.90
17423;DHT22;8829;47.932;7.810;2022-08-19T11:32:39;22.90;99.90
17423;DHT22;8829;47.932;7.810;2022-08-19T11:35:07;23.10;99.90
17423;DHT22;8829;47.932;7.810;2022-08-19T11:37:35;23.10;99.90
17423;DHT22;8829;47.932;7.810;2022-08-19T11:40:04;23.10;99.90
17423;DHT22;8829;47.932;7.810;2022-08-19T11:42:33;23.30;99.90
17423;DHT22;8829;47.932;7.810;2022-08-19T11:45:21;23.20;99.90
17423;DHT22;8829;47.932;7.810;2022-08-19T11:47:48;22.90;99.90
17423;DHT22;8829;47.932;7.810;2022-08-19T11:50:16;23.00;99.90
17423;DHT22;8829;47.932;7.810;2022-08-19T11:52:44;23.20;99.90
17423;DHT22;8829;47.932;7.810;2022-08-19T11:55:11;23.30;99.90
17423;DHT22;8829;47.932;7.810;2022-08-19T11:57:40;23.40;99.90
17423;DHT22;8829;47.932;7.810;2022-08-19T12:00:09;23.40;99.90
17423;DHT22;8829;47.932;7.810;2022-08-19T12:02:37;23.50;99.90
17423;DHT22;8829;47.932;7.810;2022-08-19T12:05:05;23.60;99.90
17423;DHT22;8829;47.932;7.810;2022-08-19T12:07:33;23.80;99.90
17423;DHT22;8829;47.932;7.810;2022-08-19T12:10:00;23.90;99.90
17423;DHT22;8829;47.932;7.810;2022-08-19T12:12:27;24.10;99.90
17423;DHT22;8829;47.932;7.810;2022-08-19T12:14:56;24.20;99.90
17423;DHT22;8829;47.932;7.810;2022-08-19T12:17:24;24.30;99.90
17423;DHT22;8829;47.932;7.810;2022-08-19T12:19:51;24.20;99.90
17423;DHT22;8829;47.932;7.810;2022-08-19T12:22:18;24.00;99.90
17423;DHT22;8829;47.932;7.810;2022-08-19T12:24:46;23.90;99.90
17423;DHT22;8829;47.932;7.810;2022-08-19T12:27:13;23.80;99.90
17423;DHT22;8829;47.932;7.810;2022-08-19T12:29:40;23.60;99.90
17423;DHT22;8829;47.932;7.810;2022-08-19T12:32:08;23.40;99.90
17423;DHT22;8829;47.932;7.810;2022-08-19T12:34:35;23.30;99.90
17423;DHT22;8829;47.932;7.810;2022-08-19T12:37:05;23.30;99.90
17423;DHT22;8829;47.932;7.810;2022-08-19T12:39:35;23.40;99.90
17423;DHT22;8829;47.932;7.810;2022-08-19T12:42:03;23.60;99.90
17423;DHT22;8829;47.932;7.810;2022-08-19T12:44:31;23.60;99.90
17423;DHT22;8829;47.932;7.810;2022-08-19T12:46:58;23.50;99.90
17423;DHT22;8829;47.932;7.810;2022-08-19T12:49:29;23.50;99.90
17423;DHT22;8829;47.932;7.810;2022-08-19T12:51:57;23.50;99.90
17423;DHT22;8829;47.932;7.810;2022-08-19T12:54:24;23.50;99.90
17423;DHT22;8829;47.932;7.810;2022-08-19T12:56:51;23.50;99.90
17423;DHT22;8829;47.932;7.810;2022-08-19T12:59:18;23.50;99.90
17423;DHT22;8829;47.932;7.810;2022-08-19T13:01:45;23.30;99.90
17423;DHT22;8829;47.932;7.810;2022-08-19T13:04:12;23.30;99.90
17423;DHT22;8829;47.932;7.810;2022-08-19T13:06:40;23.20;99.90
17423;DHT22;8829;47.932;7.810;2022-08-19T13:09:08;23.30;99.90
17423;DHT22;8829;47.932;7.810;2022-08-19T13:11:36;23.50;99.90
17423;DHT22;8829;47.932;7.810;2022-08-19T13:14:03;23.50;99.90
17423;DHT22;8829;47.932;7.810;2022-08-19T13:16:31;23.60;99.90
17423;DHT22;8829;47.932;7.810;2022-08-19T13:18:58;23.60;99.90
17423;DHT22;8829;47.932;7.810;2022-08-19T13:21:28;23.60;99.90
17423;DHT22;8829;47.932;7.810;2022-08-19T13:23:57;23.70;99.90
17423;DHT22;8829;47.932;7.810;2022-08-19T13:26:25;23.60;99.90
17423;DHT22;8829;47.932;7.810;2022-08-19T13:28:52;23.70;99.90
17423;DHT22;8829;47.932;7.810;2022-08-19T13:31:38;23.60;99.90
17423;DHT22;8829;47.932;7.810;2022-08-19T13:34:29;23.70;99.90
17423;DHT22;8829;47.932;7.810;2022-08-19T13:36:57;23.60;99.90
17423;DHT22;8829;47.932;7.810;2022-08-19T13:39:26;23.50;99.90
17423;DHT22;8829;47.932;7.810;2022-08-19T13:41:53;23.50;99.90
17423;DHT22;8829;47.932;7.810;2022-08-19T13:44:20;23.50;99.90
17423;DHT22;8829;47.932;7.810;2022-08-19T13:46:48;23.40;99.90
17423;DHT22;8829;47.932;7.810;2022-08-19T13:49:19;23.40;99.90
17423;DHT22;8829;47.932;7.810;2022-08-19T13:51:46;23.40;99.90
17423;DHT22;8829;47.932;7.810;2022-08-19T13:54:13;23.30;99.90
17423;DHT22;8829;47.932;7.810;2022-08-19T13:56:44;23.40;99.90
17423;DHT22;8829;47.932;7.810;2022-08-19T13:59:12;23.50;99.90
17423;DHT22;8829;47.932;7.810;2022-08-19T14:01:39;23.50;99.90
17423;DHT22;8829;47.932;7.810;2022-08-19T14:04:07;23.50;99.90
17423;DHT22;8829;47.932;7.810;2022-08-19T14:06:34;23.50;99.90
17423;DHT22;8829;47.932;7.810;2022-08-19T14:09:01;23.40;99.90
17423;DHT22;8829;47.932;7.810;2022-08-19T14:11:29;23.40;99.90
17423;DHT22;8829;47.932;7.810;2022-08-19T14:13:57;23.40;99.90
17423;DHT22;8829;47.932;7.810;2022-08-19T14:16:24;23.40;99.90
17423;DHT22;8829;47.932;7.810;2022-08-19T14:18:52;23.50;99.90
17423;DHT22;8829;47.932;7.810;2022-08-19T14:21:22;23.60;99.90
17423;DHT22;8829;47.932;7.810;2022-08-19T14:23:50;23.70;99.90
17423;DHT22;8829;47.932;7.810;2022-08-19T14:26:19;23.80;99.90
17423;DHT22;8829;47.932;7.810;2022-08-19T14:28:47;23.90;99.90
17423;DHT22;8829;47.932;7.810;2022-08-19T14:31:17;23.80;99.90
17423;DHT22;8829;47.932;7.810;2022-08-19T14:33:45;23.90;99.90
17423;DHT22;8829;47.932;7.810;2022-08-19T14:36:13;23.80;99.90
17423;DHT22;8829;47.932;7.810;2022-08-19T14:38:40;23.70;99.90
17423;DHT22;8829;47.932;7.810;2022-08-19T14:41:09;23.60;99.90
17423;DHT22;8829;47.932;7.810;2022-08-19T14:43:37;23.50;99.90
17423;DHT22;8829;47.932;7.810;2022-08-19T14:46:05;23.50;99.90
17423;DHT22;8829;47.932;7.810;2022-08-19T14:48:33;23.30;99.90
17423;DHT22;8829;47.932;7.810;2022-08-19T14:51:01;23.10;99.90
17423;DHT22;8829;47.932;7.810;2022-08-19T14:53:28;23.00;99.90
17423;DHT22;8829;47.932;7.810;2022-08-19T14:55:55;22.70;99.90
17423;DHT22;8829;47.932;7.810;2022-08-19T14:58:22;22.40;99.90
17423;DHT22;8829;47.932;7.810;2022-08-19T15:00:49;22.30;99.90
17423;DHT22;8829;47.932;7.810;2022-08-19T15:03:16;22.30;99.90
17423;DHT22;8829;47.932;7.810;2022-08-19T15:05:45;22.20;99.90
17423;DHT22;8829;47.932;7.810;2022-08-19T15:08:12;22.20;99.90
17423;DHT22;8829;47.932;7.810;2022-08-19T15:10:39;22.10;99.90
17423;DHT22;8829;47.932;7.810;2022-08-19T15:13:06;22.00;99.90
17423;DHT22;8829;47.932;7.810;2022-08-19T15:15:33;21.90;99.90
17423;DHT22;8829;47.932;7.810;2022-08-19T15:18:01;21.90;99.90
17423;DHT22;8829;47.932;7.810;2022-08-19T15:20:29;21.80;99.90
17423;DHT22;8829;47.932;7.810;2022-08-19T15:22:58;21.70;99.90
17423;DHT22;8829;47.932;7.810;2022-08-19T15:25:25;21.80;99.90
17423;DHT22;8829;47.932;7.810;2022-08-19T15:27:53;21.70;99.90
17423;DHT22;8829;47.932;7.810;2022-08-19T15:30:22;21.60;99.90
17423;DHT22;8829;47.932;7.810;2022-08-19T15:32:50;21.50;99.90
17423;DHT22;8829;47.932;7.810;2022-08-19T15:35:21;21.40;99.90
17423;DHT22;8829;47.932;7.810;2022-08-19T15:37:49;21.30;99.90
17423;DHT22;8829;47.932;7.810;2022-08-19T15:40:19;21.20;99.90
17423;DHT22;8829;47.932;7.810;2022-08-19T15:42:47;21.30;99.90
17423;DHT22;8829;47.932;7.810;2022-08-19T15:45:15;21.30;99.90
17423;DHT22;8829;47.932;7.810;2022-08-19T15:47:42;21.30;99.90
17423;DHT22;8829;47.932;7.810;2022-08-19T15:50:14;21.40;99.90
17423;DHT22;8829;47.932;7.810;2022-08-19T15:52:45;21.50;99.90
17423;DHT22;8829;47.932;7.810;2022-08-19T15:55:13;21.70;99.90
17423;DHT22;8829;47.932;7.810;2022-08-19T15:57:41;21.80;99.90